sensor_id;sensor_type;location;lat;lon;timestamp;P1;durP1;ratioP1;P2;durP2;ratioP2
74707;SDS011;63360;50.104;8.074;2023-05-07T00:02:12;1.52;;;0.88;;
74707;SDS011;63360;50.104;8.074;2023-05-07T00:04:38;2.95;;;1.00;;
74707;SDS011;63360;50.104;8.074;2023-05-07T00:07:05;2.20;;;1.00;;
74707;SDS011;63360;50.104;8.074;2023-05-07T00:09:31;2.15;;;0.75;;
74707;SDS011;63360;50.104;8.074;2023-05-07T00:11:58;2.05;;;1.17;;
74707;SDS011;63360;50.104;8.074;2023-05-07T00:14:24;2.08;;;1.00;;
74707;SDS011;63360;50.104;8.074;2023-05-07T00:16:51;2.67;;;1.08;;
74707;SDS011;63360;50.104;8.074;2023-05-07T00:19:17;1.93;;;0.90;;
74707;SDS011;63360;50.104;8.074;2023-05-07T00:21:44;2.47;;;1.00;;
74707;SDS011;63360;50.104;8.074;2023-05-07T00:24:10;2.90;;;0.90;;
74707;SDS011;63360;50.104;8.074;2023-05-07T00:26:36;2.33;;;0.98;;
74707;SDS011;63360;50.104;8.074;2023-05-07T00:29:03;4.57;;;1.20;;
74707;SDS011;63360;50.104;8.074;2023-05-07T00:31:29;1.90;;;1.07;;
74707;SDS011;63360;50.104;8.074;2023-05-07T00:33:55;3.15;;;1.20;;
74707;SDS011;63360;50.104;8.074;2023-05-07T00:36:22;2.17;;;1.30;;
74707;SDS011;63360;50.104;8.074;2023-05-07T00:38:48;2.50;;;1.17;;
74707;SDS011;63360;50.104;8.074;2023-05-07T00:41:15;2.85;;;1.40;;
74707;SDS011;63360;50.104;8.074;2023-05-07T00:43:41;2.10;;;1.30;;
74707;SDS011;63360;50.104;8.074;2023-05-07T00:46:08;2.97;;;1.08;;
74707;SDS011;63360;50.104;8.074;2023-05-07T00:48:35;2.10;;;1.13;;
74707;SDS011;63360;50.104;8.074;2023-05-07T00:51:01;1.98;;;1.20;;
74707;SDS011;63360;50.104;8.074;2023-05-07T00:53:28;2.63;;;1.30;;
74707;SDS011;63360;50.104;8.074;2023-05-07T00:55:54;2.33;;;1.33;;
74707;SDS011;63360;50.104;8.074;2023-05-07T00:58:21;3.50;;;1.30;;
74707;SDS011;63360;50.104;8.074;2023-05-07T01:00:48;1.95;;;1.20;;
74707;SDS011;63360;50.104;8.074;2023-05-07T01:03:15;3.25;;;1.17;;
74707;SDS011;63360;50.104;8.074;2023-05-07T01:05:42;2.45;;;1.05;;
74707;SDS011;63360;50.104;8.074;2023-05-07T01:08:10;3.13;;;1.40;;
74707;SDS011;63360;50.104;8.074;2023-05-07T01:10:38;4.70;;;1.40;;
74707;SDS011;63360;50.104;8.074;2023-05-07T01:13:09;3.15;;;1.40;;
74707;SDS011;63360;50.104;8.074;2023-05-07T01:15:36;5.70;;;1.50;;
74707;SDS011;63360;50.104;8.074;2023-05-07T01:18:03;4.38;;;1.30;;
74707;SDS011;63360;50.104;8.074;2023-05-07T01:20:30;3.10;;;1.40;;
74707;SDS011;63360;50.104;8.074;2023-05-07T01:22:57;3.17;;;1.40;;
74707;SDS011;63360;50.104;8.074;2023-05-07T01:25:23;4.90;;;1.50;;
74707;SDS011;63360;50.104;8.074;2023-05-07T01:27:50;3.88;;;1.20;;
74707;SDS011;63360;50.104;8.074;2023-05-07T01:30:16;2.90;;;1.10;;
74707;SDS011;63360;50.104;8.074;2023-05-07T01:33:00;2.33;;;1.30;;
74707;SDS011;63360;50.104;8.074;2023-05-07T01:35:35;2.17;;;1.17;;
74707;SDS011;63360;50.104;8.074;2023-05-07T01:38:05;2.45;;;1.20;;
74707;SDS011;63360;50.104;8.074;2023-05-07T01:40:32;2.97;;;1.30;;
74707;SDS011;63360;50.104;8.074;2023-05-07T01:43:01;3.08;;;1.30;;
74707;SDS011;63360;50.104;8.074;2023-05-07T01:45:30;3.17;;;1.10;;
74707;SDS011;63360;50.104;8.074;2023-05-07T01:47:56;3.03;;;1.20;;
74707;SDS011;63360;50.104;8.074;2023-05-07T01:50:24;2.60;;;1.20;;
74707;SDS011;63360;50.104;8.074;2023-05-07T01:52:51;3.08;;;1.30;;
74707;SDS011;63360;50.104;8.074;2023-05-07T01:55:18;2.17;;;1.10;;
74707;SDS011;63360;50.104;8.074;2023-05-07T01:57:45;2.73;;;1.20;;
74707;SDS011;63360;50.104;8.074;2023-05-07T02:00:11;2.78;;;1.10;;
74707;SDS011;63360;50.104;8.074;2023-05-07T02:02:38;2.15;;;1.20;;
74707;SDS011;63360;50.104;8.074;2023-05-07T02:05:05;2.08;;;1.30;;
74707;SDS011;63360;50.104;8.074;2023-05-07T02:07:32;2.53;;;1.20;;
74707;SDS011;63360;50.104;8.074;2023-05-07T02:09:58;2.00;;;1.03;;
74707;SDS011;63360;50.104;8.074;2023-05-07T02:12:24;1.88;;;1.08;;
74707;SDS011;63360;50.104;8.074;2023-05-07T02:14:51;1.88;;;1.00;;
74707;SDS011;63360;50.104;8.074;2023-05-07T02:17:17;2.00;;;1.05;;
74707;SDS011;63360;50.104;8.074;2023-05-07T02:19:44;2.33;;;1.10;;
74707;SDS011;63360;50.104;8.074;2023-05-07T02:22:10;1.93;;;1.00;;
74707;SDS011;63360;50.104;8.074;2023-05-07T02:24:37;2.63;;;1.00;;
74707;SDS011;63360;50.104;8.074;2023-05-07T02:27:03;1.92;;;1.00;;
74707;SDS011;63360;50.104;8.074;2023-05-07T02:29:30;1.52;;;0.80;;
74707;SDS011;63360;50.104;8.074;2023-05-07T02:31:56;1.88;;;0.93;;
74707;SDS011;63360;50.104;8.074;2023-05-07T02:34:23;2.20;;;1.00;;
74707;SDS011;63360;50.104;8.074;2023-05-07T02:36:49;2.15;;;1.00;;
74707;SDS011;63360;50.104;8.074;2023-05-07T02:39:16;1.48;;;0.93;;
74707;SDS011;63360;50.104;8.074;2023-05-07T02:41:42;2.83;;;1.00;;
74707;SDS011;63360;50.104;8.074;2023-05-07T02:44:08;2.03;;;1.10;;
74707;SDS011;63360;50.104;8.074;2023-05-07T02:46:35;2.00;;;0.90;;
74707;SDS011;63360;50.104;8.074;2023-05-07T02:49:01;2.65;;;1.08;;
74707;SDS011;63360;50.104;8.074;2023-05-07T02:51:29;2.63;;;1.10;;
74707;SDS011;63360;50.104;8.074;2023-05-07T02:53:56;2.33;;;1.10;;
74707;SDS011;63360;50.104;8.074;2023-05-07T02:56:25;2.25;;;1.25;;
74707;SDS011;63360;50.104;8.074;2023-05-07T02:58:52;2.77;;;1.30;;
74707;SDS011;63360;50.104;8.074;2023-05-07T03:01:18;2.75;;;1.00;;
74707;SDS011;63360;50.104;8.074;2023-05-07T03:03:45;2.72;;;1.10;;
74707;SDS011;63360;50.104;8.074;2023-05-07T03:06:11;2.22;;;1.05;;
74707;SDS011;63360;50.104;8.074;2023-05-07T03:08:37;1.50;;;0.90;;
74707;SDS011;63360;50.104;8.074;2023-05-07T03:11:04;2.10;;;1.10;;
74707;SDS011;63360;50.104;8.074;2023-05-07T03:13:31;2.85;;;1.20;;
74707;SDS011;63360;50.104;8.074;2023-05-07T03:15:57;2.40;;;1.30;;
74707;SDS011;63360;50.104;8.074;2023-05-07T03:18:23;1.98;;;1.17;;
74707;SDS011;63360;50.104;8.074;2023-05-07T03:20:51;3.13;;;1.20;;
74707;SDS011;63360;50.104;8.074;2023-05-07T03:23:17;2.07;;;1.30;;
74707;SDS011;63360;50.104;8.074;2023-05-07T03:25:44;2.53;;;1.40;;
74707;SDS011;63360;50.104;8.074;2023-05-07T03:28:10;2.95;;;1.25;;
74707;SDS011;63360;50.104;8.074;2023-05-07T03:30:36;3.17;;;1.08;;
74707;SDS011;63360;50.104;8.074;2023-05-07T03:33:03;2.58;;;1.33;;
74707;SDS011;63360;50.104;8.074;2023-05-07T03:35:30;1.60;;;1.03;;
74707;SDS011;63360;50.104;8.074;2023-05-07T03:37:56;2.67;;;1.30;;
74707;SDS011;63360;50.104;8.074;2023-05-07T03:40:22;2.17;;;1.40;;
74707;SDS011;63360;50.104;8.074;2023-05-07T03:42:49;2.60;;;1.30;;
74707;SDS011;63360;50.104;8.074;2023-05-07T03:45:15;2.65;;;1.40;;
74707;SDS011;63360;50.104;8.074;2023-05-07T03:47:41;1.90;;;1.27;;
74707;SDS011;63360;50.104;8.074;2023-05-07T03:50:08;2.45;;;1.58;;
74707;SDS011;63360;50.104;8.074;2023-05-07T03:52:35;2.85;;;1.48;;
74707;SDS011;63360;50.104;8.074;2023-05-07T03:55:02;3.35;;;1.60;;
74707;SDS011;63360;50.104;8.074;2023-05-07T03:57:28;2.83;;;1.60;;
74707;SDS011;63360;50.104;8.074;2023-05-07T03:59:54;2.60;;;1.60;;
74707;SDS011;63360;50.104;8.074;2023-05-07T04:02:21;4.05;;;1.40;;
74707;SDS011;63360;50.104;8.074;2023-05-07T04:04:48;3.28;;;1.58;;
74707;SDS011;63360;50.104;8.074;2023-05-07T04:07:15;3.65;;;1.45;;
74707;SDS011;63360;50.104;8.074;2023-05-07T04:09:42;2.47;;;1.35;;
74707;SDS011;63360;50.104;8.074;2023-05-07T04:12:08;3.20;;;1.43;;
74707;SDS011;63360;50.104;8.074;2023-05-07T04:14:34;4.50;;;1.40;;
74707;SDS011;63360;50.104;8.074;2023-05-07T04:17:01;2.97;;;1.40;;
74707;SDS011;63360;50.104;8.074;2023-05-07T04:19:28;2.33;;;1.30;;
74707;SDS011;63360;50.104;8.074;2023-05-07T04:21:56;2.47;;;1.48;;
74707;SDS011;63360;50.104;8.074;2023-05-07T04:24:22;2.53;;;1.40;;
74707;SDS011;63360;50.104;8.074;2023-05-07T04:26:49;2.50;;;1.30;;
74707;SDS011;63360;50.104;8.074;2023-05-07T04:29:17;2.50;;;1.50;;
74707;SDS011;63360;50.104;8.074;2023-05-07T04:31:43;3.88;;;1.42;;
74707;SDS011;63360;50.104;8.074;2023-05-07T04:34:11;1.80;;;1.27;;
74707;SDS011;63360;50.104;8.074;2023-05-07T04:36:38;4.43;;;1.70;;
74707;SDS011;63360;50.104;8.074;2023-05-07T04:39:04;2.28;;;1.38;;
74707;SDS011;63360;50.104;8.074;2023-05-07T04:41:31;2.45;;;1.45;;
74707;SDS011;63360;50.104;8.074;2023-05-07T04:43:59;3.63;;;1.60;;
74707;SDS011;63360;50.104;8.074;2023-05-07T04:46:25;3.08;;;1.70;;
74707;SDS011;63360;50.104;8.074;2023-05-07T04:48:51;4.10;;;1.90;;
74707;SDS011;63360;50.104;8.074;2023-05-07T04:51:18;2.85;;;1.60;;
74707;SDS011;63360;50.104;8.074;2023-05-07T04:53:44;3.33;;;1.70;;
74707;SDS011;63360;50.104;8.074;2023-05-07T04:56:11;2.92;;;1.77;;
74707;SDS011;63360;50.104;8.074;2023-05-07T04:58:37;2.92;;;1.70;;
74707;SDS011;63360;50.104;8.074;2023-05-07T05:01:04;3.60;;;1.83;;
74707;SDS011;63360;50.104;8.074;2023-05-07T05:03:30;3.65;;;1.70;;
74707;SDS011;63360;50.104;8.074;2023-05-07T05:05:57;4.15;;;1.60;;
74707;SDS011;63360;50.104;8.074;2023-05-07T05:08:25;3.35;;;1.60;;
74707;SDS011;63360;50.104;8.074;2023-05-07T05:10:51;2.85;;;1.70;;
74707;SDS011;63360;50.104;8.074;2023-05-07T05:13:18;3.20;;;1.80;;
74707;SDS011;63360;50.104;8.074;2023-05-07T05:15:44;2.70;;;1.70;;
74707;SDS011;63360;50.104;8.074;2023-05-07T05:18:11;3.38;;;1.70;;
74707;SDS011;63360;50.104;8.074;2023-05-07T05:20:38;3.88;;;1.80;;
74707;SDS011;63360;50.104;8.074;2023-05-07T05:23:04;3.03;;;1.70;;
74707;SDS011;63360;50.104;8.074;2023-05-07T05:25:31;3.80;;;1.83;;
74707;SDS011;63360;50.104;8.074;2023-05-07T05:27:58;2.53;;;1.67;;
74707;SDS011;63360;50.104;8.074;2023-05-07T05:30:24;3.67;;;1.80;;
74707;SDS011;63360;50.104;8.074;2023-05-07T05:32:51;3.83;;;1.90;;
74707;SDS011;63360;50.104;8.074;2023-05-07T05:35:17;4.55;;;2.10;;
74707;SDS011;63360;50.104;8.074;2023-05-07T05:37:44;4.60;;;2.37;;
74707;SDS011;63360;50.104;8.074;2023-05-07T05:40:10;4.60;;;2.00;;
74707;SDS011;63360;50.104;8.074;2023-05-07T05:42:37;3.30;;;1.80;;
74707;SDS011;63360;50.104;8.074;2023-05-07T05:45:04;3.30;;;1.50;;
74707;SDS011;63360;50.104;8.074;2023-05-07T05:47:30;3.33;;;1.85;;
74707;SDS011;63360;50.104;8.074;2023-05-07T05:49:57;5.23;;;1.67;;
74707;SDS011;63360;50.104;8.074;2023-05-07T05:52:23;3.53;;;1.90;;
74707;SDS011;63360;50.104;8.074;2023-05-07T05:54:50;3.33;;;1.52;;
74707;SDS011;63360;50.104;8.074;2023-05-07T05:57:16;3.67;;;1.70;;
74707;SDS011;63360;50.104;8.074;2023-05-07T05:59:43;3.28;;;1.60;;
74707;SDS011;63360;50.104;8.074;2023-05-07T06:02:09;2.80;;;1.33;;
74707;SDS011;63360;50.104;8.074;2023-05-07T06:04:36;2.70;;;1.40;;
74707;SDS011;63360;50.104;8.074;2023-05-07T06:07:02;3.80;;;1.60;;
74707;SDS011;63360;50.104;8.074;2023-05-07T06:09:29;2.53;;;1.58;;
74707;SDS011;63360;50.104;8.074;2023-05-07T06:11:55;3.35;;;1.50;;
74707;SDS011;63360;50.104;8.074;2023-05-07T06:14:25;3.03;;;1.30;;
74707;SDS011;63360;50.104;8.074;2023-05-07T06:16:51;3.28;;;1.40;;
74707;SDS011;63360;50.104;8.074;2023-05-07T06:19:18;3.70;;;1.55;;
74707;SDS011;63360;50.104;8.074;2023-05-07T06:21:49;3.65;;;1.40;;
74707;SDS011;63360;50.104;8.074;2023-05-07T06:24:16;3.92;;;1.50;;
74707;SDS011;63360;50.104;8.074;2023-05-07T06:26:42;2.73;;;1.50;;
74707;SDS011;63360;50.104;8.074;2023-05-07T06:29:08;2.25;;;1.48;;
74707;SDS011;63360;50.104;8.074;2023-05-07T06:31:35;2.97;;;1.20;;
74707;SDS011;63360;50.104;8.074;2023-05-07T06:34:01;2.78;;;1.38;;
74707;SDS011;63360;50.104;8.074;2023-05-07T06:36:28;5.20;;;1.63;;
74707;SDS011;63360;50.104;8.074;2023-05-07T06:38:55;2.77;;;1.30;;
74707;SDS011;63360;50.104;8.074;2023-05-07T06:41:22;1.90;;;1.45;;
74707;SDS011;63360;50.104;8.074;2023-05-07T06:43:48;2.40;;;1.60;;
74707;SDS011;63360;50.104;8.074;2023-05-07T06:46:15;2.90;;;1.45;;
74707;SDS011;63360;50.104;8.074;2023-05-07T06:48:42;5.28;;;1.50;;
74707;SDS011;63360;50.104;8.074;2023-05-07T06:51:08;3.70;;;1.30;;
74707;SDS011;63360;50.104;8.074;2023-05-07T06:53:35;2.75;;;1.38;;
74707;SDS011;63360;50.104;8.074;2023-05-07T06:56:01;2.88;;;1.33;;
74707;SDS011;63360;50.104;8.074;2023-05-07T06:58:28;3.17;;;1.40;;
74707;SDS011;63360;50.104;8.074;2023-05-07T07:00:54;2.90;;;1.63;;
74707;SDS011;63360;50.104;8.074;2023-05-07T07:03:20;5.00;;;1.40;;
74707;SDS011;63360;50.104;8.074;2023-05-07T07:05:47;3.33;;;1.52;;
74707;SDS011;63360;50.104;8.074;2023-05-07T07:08:13;3.10;;;1.40;;
74707;SDS011;63360;50.104;8.074;2023-05-07T07:10:40;1.77;;;1.20;;
74707;SDS011;63360;50.104;8.074;2023-05-07T07:13:07;2.25;;;1.40;;
74707;SDS011;63360;50.104;8.074;2023-05-07T07:15:33;2.30;;;1.40;;
74707;SDS011;63360;50.104;8.074;2023-05-07T07:17:59;2.80;;;1.50;;
74707;SDS011;63360;50.104;8.074;2023-05-07T07:20:26;3.60;;;1.60;;
74707;SDS011;63360;50.104;8.074;2023-05-07T07:22:52;2.75;;;1.45;;
74707;SDS011;63360;50.104;8.074;2023-05-07T07:25:19;3.00;;;1.70;;
74707;SDS011;63360;50.104;8.074;2023-05-07T07:27:45;2.47;;;1.80;;
74707;SDS011;63360;50.104;8.074;2023-05-07T07:30:12;4.50;;;1.70;;
74707;SDS011;63360;50.104;8.074;2023-05-07T07:32:38;3.95;;;1.60;;
74707;SDS011;63360;50.104;8.074;2023-05-07T07:35:05;2.53;;;1.58;;
74707;SDS011;63360;50.104;8.074;2023-05-07T07:37:32;3.83;;;1.65;;
74707;SDS011;63360;50.104;8.074;2023-05-07T07:39:59;2.60;;;1.50;;
74707;SDS011;63360;50.104;8.074;2023-05-07T07:42:26;2.97;;;1.58;;
74707;SDS011;63360;50.104;8.074;2023-05-07T07:44:52;3.47;;;1.70;;
74707;SDS011;63360;50.104;8.074;2023-05-07T07:47:18;2.50;;;1.45;;
74707;SDS011;63360;50.104;8.074;2023-05-07T07:49:45;4.20;;;1.67;;
74707;SDS011;63360;50.104;8.074;2023-05-07T07:52:11;2.33;;;1.60;;
74707;SDS011;63360;50.104;8.074;2023-05-07T07:54:38;2.15;;;1.48;;
74707;SDS011;63360;50.104;8.074;2023-05-07T07:57:04;2.40;;;1.60;;
74707;SDS011;63360;50.104;8.074;2023-05-07T07:59:31;3.28;;;1.70;;
74707;SDS011;63360;50.104;8.074;2023-05-07T08:01:57;4.38;;;2.03;;
74707;SDS011;63360;50.104;8.074;2023-05-07T08:04:24;3.60;;;1.63;;
74707;SDS011;63360;50.104;8.074;2023-05-07T08:06:50;2.25;;;1.70;;
74707;SDS011;63360;50.104;8.074;2023-05-07T08:09:17;2.38;;;1.60;;
74707;SDS011;63360;50.104;8.074;2023-05-07T08:11:43;3.13;;;1.65;;
74707;SDS011;63360;50.104;8.074;2023-05-07T08:14:10;2.60;;;1.60;;
74707;SDS011;63360;50.104;8.074;2023-05-07T08:16:37;4.00;;;1.90;;
74707;SDS011;63360;50.104;8.074;2023-05-07T08:19:03;2.25;;;1.63;;
74707;SDS011;63360;50.104;8.074;2023-05-07T08:21:29;4.22;;;1.88;;
74707;SDS011;63360;50.104;8.074;2023-05-07T08:23:59;2.65;;;1.83;;
74707;SDS011;63360;50.104;8.074;2023-05-07T08:26:25;2.85;;;1.90;;
74707;SDS011;63360;50.104;8.074;2023-05-07T08:28:52;2.53;;;1.80;;
74707;SDS011;63360;50.104;8.074;2023-05-07T08:31:18;2.70;;;1.77;;
74707;SDS011;63360;50.104;8.074;2023-05-07T08:33:45;4.78;;;1.98;;
74707;SDS011;63360;50.104;8.074;2023-05-07T08:36:11;3.67;;;1.80;;
74707;SDS011;63360;50.104;8.074;2023-05-07T08:38:38;3.97;;;1.73;;
74707;SDS011;63360;50.104;8.074;2023-05-07T08:41:06;2.50;;;1.90;;
74707;SDS011;63360;50.104;8.074;2023-05-07T08:43:36;3.38;;;1.60;;
74707;SDS011;63360;50.104;8.074;2023-05-07T08:46:06;2.85;;;2.00;;
74707;SDS011;63360;50.104;8.074;2023-05-07T08:48:35;2.60;;;1.60;;
74707;SDS011;63360;50.104;8.074;2023-05-07T08:51:02;3.65;;;1.70;;
74707;SDS011;63360;50.104;8.074;2023-05-07T08:53:29;3.73;;;2.00;;
74707;SDS011;63360;50.104;8.074;2023-05-07T08:55:55;3.45;;;1.70;;
74707;SDS011;63360;50.104;8.074;2023-05-07T08:58:22;4.25;;;2.00;;
74707;SDS011;63360;50.104;8.074;2023-05-07T09:00:48;4.43;;;2.10;;
74707;SDS011;63360;50.104;8.074;2023-05-07T09:03:17;3.25;;;1.67;;
74707;SDS011;63360;50.104;8.074;2023-05-07T09:05:44;2.83;;;1.57;;
74707;SDS011;63360;50.104;8.074;2023-05-07T09:08:14;3.47;;;1.70;;
74707;SDS011;63360;50.104;8.074;2023-05-07T09:10:41;2.83;;;1.90;;
74707;SDS011;63360;50.104;8.074;2023-05-07T09:13:08;4.78;;;1.92;;
74707;SDS011;63360;50.104;8.074;2023-05-07T09:15:35;3.00;;;1.90;;
74707;SDS011;63360;50.104;8.074;2023-05-07T09:18:01;2.57;;;1.80;;
74707;SDS011;63360;50.104;8.074;2023-05-07T09:20:29;2.95;;;1.63;;
74707;SDS011;63360;50.104;8.074;2023-05-07T09:22:56;3.17;;;1.90;;
74707;SDS011;63360;50.104;8.074;2023-05-07T09:25:29;3.53;;;1.80;;
74707;SDS011;63360;50.104;8.074;2023-05-07T09:27:57;2.95;;;2.15;;
74707;SDS011;63360;50.104;8.074;2023-05-07T09:30:27;2.47;;;1.80;;
74707;SDS011;63360;50.104;8.074;2023-05-07T09:33:00;3.47;;;1.95;;
74707;SDS011;63360;50.104;8.074;2023-05-07T09:35:29;3.60;;;2.00;;
74707;SDS011;63360;50.104;8.074;2023-05-07T09:37:56;2.60;;;1.70;;
74707;SDS011;63360;50.104;8.074;2023-05-07T09:40:27;5.15;;;2.10;;
74707;SDS011;63360;50.104;8.074;2023-05-07T09:42:55;3.03;;;1.80;;
74707;SDS011;63360;50.104;8.074;2023-05-07T09:45:26;3.00;;;1.92;;
74707;SDS011;63360;50.104;8.074;2023-05-07T09:47:56;2.83;;;2.10;;
74707;SDS011;63360;50.104;8.074;2023-05-07T09:50:28;3.50;;;2.00;;
74707;SDS011;63360;50.104;8.074;2023-05-07T09:52:56;3.00;;;1.90;;
74707;SDS011;63360;50.104;8.074;2023-05-07T09:55:23;5.00;;;2.30;;
74707;SDS011;63360;50.104;8.074;2023-05-07T09:57:50;3.80;;;2.30;;
74707;SDS011;63360;50.104;8.074;2023-05-07T10:00:19;4.68;;;2.30;;
74707;SDS011;63360;50.104;8.074;2023-05-07T10:02:51;3.88;;;2.15;;
74707;SDS011;63360;50.104;8.074;2023-05-07T10:05:19;4.20;;;2.80;;
74707;SDS011;63360;50.104;8.074;2023-05-07T10:07:46;3.03;;;2.03;;
74707;SDS011;63360;50.104;8.074;2023-05-07T10:10:14;3.83;;;1.90;;
74707;SDS011;63360;50.104;8.074;2023-05-07T10:12:41;3.40;;;2.40;;
74707;SDS011;63360;50.104;8.074;2023-05-07T10:15:08;5.03;;;2.60;;
74707;SDS011;63360;50.104;8.074;2023-05-07T10:17:39;4.68;;;2.55;;
74707;SDS011;63360;50.104;8.074;2023-05-07T10:20:06;4.60;;;2.40;;
74707;SDS011;63360;50.104;8.074;2023-05-07T10:22:37;4.25;;;2.40;;
74707;SDS011;63360;50.104;8.074;2023-05-07T10:25:12;5.68;;;2.47;;
74707;SDS011;63360;50.104;8.074;2023-05-07T10:27:42;3.90;;;2.08;;
74707;SDS011;63360;50.104;8.074;2023-05-07T10:30:22;3.20;;;2.10;;
74707;SDS011;63360;50.104;8.074;2023-05-07T10:33:04;5.03;;;2.20;;
74707;SDS011;63360;50.104;8.074;2023-05-07T10:35:36;4.30;;;2.30;;
74707;SDS011;63360;50.104;8.074;2023-05-07T10:38:05;4.82;;;2.83;;
74707;SDS011;63360;50.104;8.074;2023-05-07T10:40:31;4.03;;;2.78;;
74707;SDS011;63360;50.104;8.074;2023-05-07T10:42:59;4.90;;;2.90;;
74707;SDS011;63360;50.104;8.074;2023-05-07T10:45:27;3.67;;;2.67;;
74707;SDS011;63360;50.104;8.074;2023-05-07T10:48:05;3.45;;;2.22;;
74707;SDS011;63360;50.104;8.074;2023-05-07T10:50:52;4.93;;;2.72;;
74707;SDS011;63360;50.104;8.074;2023-05-07T10:53:58;4.78;;;2.47;;
74707;SDS011;63360;50.104;8.074;2023-05-07T10:56:35;2.97;;;2.30;;
74707;SDS011;63360;50.104;8.074;2023-05-07T11:04:20;5.65;;;3.30;;
74707;SDS011;63360;50.104;8.074;2023-05-07T11:15:08;6.03;;;3.08;;
74707;SDS011;63360;50.104;8.074;2023-05-07T11:17:57;4.30;;;3.03;;
74707;SDS011;63360;50.104;8.074;2023-05-07T11:26:07;5.43;;;2.90;;
74707;SDS011;63360;50.104;8.074;2023-05-07T11:28:39;6.90;;;3.55;;
74707;SDS011;63360;50.104;8.074;2023-05-07T11:31:07;4.43;;;3.00;;
74707;SDS011;63360;50.104;8.074;2023-05-07T11:33:34;4.78;;;3.35;;
74707;SDS011;63360;50.104;8.074;2023-05-07T11:36:02;5.18;;;2.90;;
74707;SDS011;63360;50.104;8.074;2023-05-07T11:38:30;4.20;;;2.93;;
74707;SDS011;63360;50.104;8.074;2023-05-07T11:40:57;4.15;;;2.97;;
74707;SDS011;63360;50.104;8.074;2023-05-07T11:43:26;4.32;;;3.10;;
74707;SDS011;63360;50.104;8.074;2023-05-07T11:45:53;3.53;;;2.55;;
74707;SDS011;63360;50.104;8.074;2023-05-07T11:48:20;4.05;;;2.47;;
74707;SDS011;63360;50.104;8.074;2023-05-07T11:50:51;3.53;;;2.70;;
74707;SDS011;63360;50.104;8.074;2023-05-07T11:53:34;3.78;;;2.58;;
74707;SDS011;63360;50.104;8.074;2023-05-07T11:56:09;4.60;;;3.13;;
74707;SDS011;63360;50.104;8.074;2023-05-07T11:58:40;3.58;;;2.40;;
74707;SDS011;63360;50.104;8.074;2023-05-07T12:01:07;4.38;;;2.60;;
74707;SDS011;63360;50.104;8.074;2023-05-07T12:03:35;4.37;;;2.50;;
74707;SDS011;63360;50.104;8.074;2023-05-07T12:06:06;4.88;;;3.10;;
74707;SDS011;63360;50.104;8.074;2023-05-07T12:08:32;5.35;;;2.72;;
74707;SDS011;63360;50.104;8.074;2023-05-07T12:10:59;3.50;;;2.35;;
74707;SDS011;63360;50.104;8.074;2023-05-07T12:13:25;2.85;;;2.40;;
74707;SDS011;63360;50.104;8.074;2023-05-07T12:15:52;3.37;;;2.50;;
74707;SDS011;63360;50.104;8.074;2023-05-07T12:18:19;3.97;;;2.40;;
74707;SDS011;63360;50.104;8.074;2023-05-07T12:20:47;4.03;;;2.70;;
74707;SDS011;63360;50.104;8.074;2023-05-07T12:23:14;3.53;;;2.40;;
74707;SDS011;63360;50.104;8.074;2023-05-07T12:25:41;3.58;;;2.40;;
74707;SDS011;63360;50.104;8.074;2023-05-07T12:28:13;3.27;;;2.10;;
74707;SDS011;63360;50.104;8.074;2023-05-07T12:30:45;4.38;;;2.63;;
74707;SDS011;63360;50.104;8.074;2023-05-07T12:33:16;3.25;;;2.10;;
74707;SDS011;63360;50.104;8.074;2023-05-07T12:35:44;4.47;;;2.05;;
74707;SDS011;63360;50.104;8.074;2023-05-07T12:38:14;3.40;;;2.17;;
74707;SDS011;63360;50.104;8.074;2023-05-07T12:40:43;2.93;;;1.77;;
74707;SDS011;63360;50.104;8.074;2023-05-07T12:43:17;2.70;;;1.80;;
74707;SDS011;63360;50.104;8.074;2023-05-07T12:45:50;3.60;;;2.30;;
74707;SDS011;63360;50.104;8.074;2023-05-07T12:48:17;4.25;;;2.50;;
74707;SDS011;63360;50.104;8.074;2023-05-07T12:50:48;4.45;;;2.25;;
74707;SDS011;63360;50.104;8.074;2023-05-07T12:53:19;4.50;;;2.30;;
74707;SDS011;63360;50.104;8.074;2023-05-07T12:55:48;3.63;;;2.53;;
74707;SDS011;63360;50.104;8.074;2023-05-07T12:58:34;3.45;;;2.50;;
74707;SDS011;63360;50.104;8.074;2023-05-07T13:01:04;2.40;;;1.63;;
74707;SDS011;63360;50.104;8.074;2023-05-07T13:03:33;2.55;;;1.90;;
74707;SDS011;63360;50.104;8.074;2023-05-07T13:06:05;3.67;;;2.40;;
74707;SDS011;63360;50.104;8.074;2023-05-07T13:08:39;4.88;;;2.47;;
74707;SDS011;63360;50.104;8.074;2023-05-07T13:11:09;3.00;;;2.30;;
74707;SDS011;63360;50.104;8.074;2023-05-07T13:13:37;3.33;;;2.42;;
74707;SDS011;63360;50.104;8.074;2023-05-07T13:16:05;3.92;;;2.70;;
74707;SDS011;63360;50.104;8.074;2023-05-07T13:18:33;4.47;;;2.57;;
74707;SDS011;63360;50.104;8.074;2023-05-07T13:21:00;6.38;;;2.42;;
74707;SDS011;63360;50.104;8.074;2023-05-07T13:23:27;3.63;;;2.50;;
74707;SDS011;63360;50.104;8.074;2023-05-07T13:25:54;6.85;;;2.78;;
74707;SDS011;63360;50.104;8.074;2023-05-07T13:28:22;4.13;;;3.08;;
74707;SDS011;63360;50.104;8.074;2023-05-07T13:30:49;5.17;;;3.30;;
74707;SDS011;63360;50.104;8.074;2023-05-07T13:33:17;4.70;;;3.13;;
74707;SDS011;63360;50.104;8.074;2023-05-07T13:35:44;5.13;;;3.17;;
74707;SDS011;63360;50.104;8.074;2023-05-07T13:38:10;4.72;;;2.92;;
74707;SDS011;63360;50.104;8.074;2023-05-07T13:40:37;5.60;;;3.38;;
74707;SDS011;63360;50.104;8.074;2023-05-07T13:43:05;3.93;;;3.10;;
74707;SDS011;63360;50.104;8.074;2023-05-07T13:45:31;4.43;;;3.08;;
74707;SDS011;63360;50.104;8.074;2023-05-07T13:47:58;4.15;;;3.00;;
74707;SDS011;63360;50.104;8.074;2023-05-07T13:50:25;3.85;;;3.10;;
74707;SDS011;63360;50.104;8.074;2023-05-07T13:52:53;3.70;;;2.88;;
74707;SDS011;63360;50.104;8.074;2023-05-07T13:55:20;5.07;;;2.70;;
74707;SDS011;63360;50.104;8.074;2023-05-07T13:57:47;5.43;;;2.70;;
74707;SDS011;63360;50.104;8.074;2023-05-07T14:00:14;4.05;;;2.80;;
74707;SDS011;63360;50.104;8.074;2023-05-07T14:02:42;3.75;;;2.53;;
74707;SDS011;63360;50.104;8.074;2023-05-07T14:05:09;4.15;;;2.60;;
74707;SDS011;63360;50.104;8.074;2023-05-07T14:07:36;4.23;;;2.87;;
74707;SDS011;63360;50.104;8.074;2023-05-07T14:10:03;4.28;;;2.80;;
74707;SDS011;63360;50.104;8.074;2023-05-07T14:12:29;4.43;;;3.17;;
74707;SDS011;63360;50.104;8.074;2023-05-07T14:14:56;6.53;;;3.55;;
74707;SDS011;63360;50.104;8.074;2023-05-07T14:17:22;4.38;;;3.30;;
74707;SDS011;63360;50.104;8.074;2023-05-07T14:19:51;3.70;;;3.10;;
74707;SDS011;63360;50.104;8.074;2023-05-07T14:22:20;4.60;;;2.60;;
74707;SDS011;63360;50.104;8.074;2023-05-07T14:24:49;4.07;;;3.30;;
74707;SDS011;63360;50.104;8.074;2023-05-07T14:27:31;5.07;;;3.47;;
74707;SDS011;63360;50.104;8.074;2023-05-07T14:29:58;4.60;;;3.10;;
74707;SDS011;63360;50.104;8.074;2023-05-07T14:32:24;4.47;;;3.07;;
74707;SDS011;63360;50.104;8.074;2023-05-07T14:34:51;5.40;;;3.17;;
74707;SDS011;63360;50.104;8.074;2023-05-07T14:37:17;5.25;;;3.00;;
74707;SDS011;63360;50.104;8.074;2023-05-07T14:39:45;4.40;;;3.00;;
74707;SDS011;63360;50.104;8.074;2023-05-07T14:42:15;4.32;;;3.20;;
74707;SDS011;63360;50.104;8.074;2023-05-07T14:44:42;3.90;;;3.00;;
74707;SDS011;63360;50.104;8.074;2023-05-07T14:47:08;4.45;;;3.17;;
74707;SDS011;63360;50.104;8.074;2023-05-07T14:49:35;4.40;;;2.80;;
74707;SDS011;63360;50.104;8.074;2023-05-07T14:52:02;3.95;;;2.75;;
74707;SDS011;63360;50.104;8.074;2023-05-07T14:54:28;4.22;;;3.13;;
74707;SDS011;63360;50.104;8.074;2023-05-07T14:56:55;3.80;;;3.00;;
74707;SDS011;63360;50.104;8.074;2023-05-07T14:59:21;4.25;;;2.72;;
74707;SDS011;63360;50.104;8.074;2023-05-07T15:01:50;4.50;;;3.00;;
74707;SDS011;63360;50.104;8.074;2023-05-07T15:04:17;3.63;;;2.70;;
74707;SDS011;63360;50.104;8.074;2023-05-07T15:06:43;4.53;;;2.83;;
74707;SDS011;63360;50.104;8.074;2023-05-07T15:09:10;4.93;;;2.90;;
74707;SDS011;63360;50.104;8.074;2023-05-07T15:11:36;5.88;;;2.80;;